Time;durP1;ratioP1;P1;durP2;ratioP2;P2;SDS_P1;SDS_P2;PMS_P1;PMS_P2;Temp;Humidity;BMP_temperature;BMP_pressure;BME280_temperature;BME280_humidity;BME280_pressure;Samples;Min_cycle;Max_cycle;Signal;HPM_P1;HPM_P2
2023/08/17 00:00:01;;;;;;;11.55;8.55;;;;;;;;;;4451506;32;318368;-82
2023/08/17 00:02:28;;;;;;;11.48;8.18;;;;;;;;;;4462686;32;317619;-82
2023/08/17 00:04:55;;;;;;;11.18;7.50;;;;;;;;;;4451461;32;318554;-82
2023/08/17 00:07:21;;;;;;;12.10;8.05;;;;;;;;;;4461121;32;318241;-82
2023/08/17 00:09:48;;;;;;;11.88;8.43;;;;;;;;;;4460882;32;332120;-82
2023/08/17 00:12:15;;;;;;;14.63;7.78;;;;;;;;;;4447190;32;419297;-82
2023/08/17 00:14:42;;;;;;;10.93;8.38;;;;;;;;;;4462491;32;318592;-82
2023/08/17 00:17:10;;;;;;;16.98;8.52;;;;;;;;;;4443265;32;318733;-82
2023/08/17 00:19:36;;;;;;;12.82;8.48;;;;;;;;;;4446009;32;318041;-82
2023/08/17 00:22:03;;;;;;;9.43;8.48;;;;;;;;;;4435094;32;318411;-82
2023/08/17 00:24:30;;;;;;;11.12;8.18;;;;;;;;;;4446699;32;317310;-82
2023/08/17 00:26:56;;;;;;;9.25;8.27;;;;;;;;;;4436573;32;318176;-82
2023/08/17 00:29:23;;;;;;;11.95;8.05;;;;;;;;;;4445677;32;317401;-82
2023/08/17 00:31:51;;;;;;;9.30;7.80;;;;;;;;;;4435648;32;318183;-82
2023/08/17 00:34:19;;;;;;;10.85;8.15;;;;;;;;;;4446613;32;317309;-82
2023/08/17 00:36:46;;;;;;;14.23;7.87;;;;;;;;;;4446081;32;319070;-82
2023/08/17 00:39:12;;;;;;;9.50;8.43;;;;;;;;;;4435390;32;318798;-82
2023/08/17 00:41:39;;;;;;;15.02;8.23;;;;;;;;;;4445454;32;347158;-82
2023/08/17 00:44:06;;;;;;;11.88;8.60;;;;;;;;;;4448374;32;318729;-82
2023/08/17 00:46:33;;;;;;;13.50;9.02;;;;;;;;;;4462111;32;318302;-82
2023/08/17 00:49:00;;;;;;;12.18;8.80;;;;;;;;;;4450971;32;318284;-82
2023/08/17 00:51:29;;;;;;;10.38;8.20;;;;;;;;;;4460625;32;318229;-82
2023/08/17 00:53:59;;;;;;;12.50;8.73;;;;;;;;;;4451898;32;318703;-83
2023/08/17 00:56:27;;;;;;;14.93;8.63;;;;;;;;;;4445685;32;318666;-82
2023/08/17 00:58:54;;;;;;;13.90;8.25;;;;;;;;;;4435273;32;318359;-82
2023/08/17 01:01:21;;;;;;;9.65;8.30;;;;;;;;;;4446425;32;318383;-82
2023/08/17 01:03:48;;;;;;;9.57;8.50;;;;;;;;;;4445253;32;354561;-82
2023/08/17 01:06:15;;;;;;;11.10;8.23;;;;;;;;;;4432814;32;418030;-83
2023/08/17 01:08:44;;;;;;;13.98;8.45;;;;;;;;;;4445845;32;318361;-83
2023/08/17 01:11:18;;;;;;;12.00;9.05;;;;;;;;;;4434785;32;318316;-82
2023/08/17 01:13:50;;;;;;;13.38;7.95;;;;;;;;;;4445941;32;318312;-83
2023/08/17 01:16:25;;;;;;;12.37;8.43;;;;;;;;;;4433032;32;418872;-83
2023/08/17 01:18:53;;;;;;;16.48;8.90;;;;;;;;;;4436233;32;318517;-85
2023/08/17 01:21:23;;;;;;;11.57;8.20;;;;;;;;;;4445707;32;318376;-81
2023/08/17 01:23:52;;;;;;;14.38;9.00;;;;;;;;;;4435818;32;317862;-82
2023/08/17 01:26:18;;;;;;;14.18;8.43;;;;;;;;;;4445800;32;318149;-82
2023/08/17 01:28:47;;;;;;;17.60;8.80;;;;;;;;;;4444824;32;318471;-82
2023/08/17 01:31:20;;;;;;;12.35;8.45;;;;;;;;;;4432735;32;417166;-82
2023/08/17 01:33:52;;;;;;;12.23;7.78;;;;;;;;;;4443588;32;318465;-82
2023/08/17 01:36:25;;;;;;;11.00;8.25;;;;;;;;;;4430131;32;417305;-82
2023/08/17 01:38:55;;;;;;;9.63;8.48;;;;;;;;;;4435583;32;317484;-82
2023/08/17 01:41:24;;;;;;;13.00;8.82;;;;;;;;;;4445915;32;317203;-82
2023/08/17 01:43:52;;;;;;;13.10;9.07;;;;;;;;;;4435826;32;318575;-82
2023/08/17 01:46:19;;;;;;;12.43;8.63;;;;;;;;;;4444705;32;318556;-82
2023/08/17 01:48:47;;;;;;;12.18;8.38;;;;;;;;;;4445451;32;318393;-82
2023/08/17 01:51:20;;;;;;;14.52;8.82;;;;;;;;;;4431485;32;419728;-82
2023/08/17 01:53:47;;;;;;;11.30;8.02;;;;;;;;;;4444869;32;318515;-82
2023/08/17 01:56:15;;;;;;;14.87;8.60;;;;;;;;;;4444889;32;417424;-82
2023/08/17 01:58:42;;;;;;;8.88;7.97;;;;;;;;;;4461037;32;318214;-82
2023/08/17 02:01:08;;;;;;;12.52;9.27;;;;;;;;;;4449950;32;317518;-82
2023/08/17 02:03:35;;;;;;;12.88;8.85;;;;;;;;;;4460996;32;318339;-82
2023/08/17 02:06:02;;;;;;;10.60;8.88;;;;;;;;;;4450302;32;318304;-82
2023/08/17 02:08:28;;;;;;;9.55;8.15;;;;;;;;;;4459627;32;318541;-82
2023/08/17 02:10:55;;;;;;;11.27;8.63;;;;;;;;;;4450482;32;317481;-82
2023/08/17 02:13:23;;;;;;;15.35;9.18;;;;;;;;;;4460757;32;318391;-83
2023/08/17 02:15:50;;;;;;;10.63;8.50;;;;;;;;;;4450826;32;318681;-82
2023/08/17 02:18:17;;;;;;;14.23;9.13;;;;;;;;;;4445475;32;318556;-82
2023/08/17 02:20:43;;;;;;;14.50;9.73;;;;;;;;;;4442773;32;318338;-82
2023/08/17 02:23:10;;;;;;;13.07;8.55;;;;;;;;;;4434895;32;318524;-82
2023/08/17 02:25:39;;;;;;;10.63;8.90;;;;;;;;;;4444492;32;318477;-82
2023/08/17 02:28:06;;;;;;;10.65;8.30;;;;;;;;;;4434967;32;318335;-82
2023/08/17 02:30:34;;;;;;;12.73;8.75;;;;;;;;;;4444780;32;318278;-83
2023/08/17 02:33:01;;;;;;;14.48;8.70;;;;;;;;;;4433657;32;318177;-82
2023/08/17 02:35:28;;;;;;;13.65;8.32;;;;;;;;;;4444056;32;318418;-81
2023/08/17 02:37:55;;;;;;;12.90;9.18;;;;;;;;;;4434640;32;317708;-82
2023/08/17 02:40:21;;;;;;;13.00;8.98;;;;;;;;;;4443397;32;318454;-82
2023/08/17 02:42:48;;;;;;;12.75;8.43;;;;;;;;;;4443669;32;351238;-82
2023/08/17 02:45:15;;;;;;;9.13;7.80;;;;;;;;;;4431548;32;419227;-83
2023/08/17 02:47:43;;;;;;;15.95;7.82;;;;;;;;;;4444919;32;317240;-82
2023/08/17 02:50:11;;;;;;;12.43;8.63;;;;;;;;;;4434168;32;317834;-82
2023/08/17 02:52:37;;;;;;;12.82;8.95;;;;;;;;;;4443675;32;318161;-83
2023/08/17 02:55:05;;;;;;;11.83;8.90;;;;;;;;;;4433340;32;317671;-82
2023/08/17 02:57:32;;;;;;;10.82;8.77;;;;;;;;;;4444539;32;318070;-82
2023/08/17 02:59:58;;;;;;;9.77;8.70;;;;;;;;;;4433470;32;318231;-82
2023/08/17 03:02:25;;;;;;;9.95;8.40;;;;;;;;;;4443106;32;315604;-82
2023/08/17 03:04:53;;;;;;;10.88;9.30;;;;;;;;;;4432419;32;317169;-83
2023/08/17 03:07:20;;;;;;;11.38;8.75;;;;;;;;;;4444451;32;318073;-83
2023/08/17 03:09:46;;;;;;;12.48;8.93;;;;;;;;;;4443319;32;318119;-82
2023/08/17 03:12:13;;;;;;;14.40;9.65;;;;;;;;;;4434344;32;319981;-83
2023/08/17 03:14:40;;;;;;;15.48;9.32;;;;;;;;;;4444645;32;317618;-83
2023/08/17 03:17:06;;;;;;;16.25;9.85;;;;;;;;;;4440812;32;317382;-83
2023/08/17 03:19:33;;;;;;;12.90;8.45;;;;;;;;;;4459615;32;317745;-82
2023/08/17 03:22:01;;;;;;;12.82;9.00;;;;;;;;;;4449912;32;318343;-82
2023/08/17 03:24:28;;;;;;;14.27;9.00;;;;;;;;;;4435347;32;318388;-82
2023/08/17 03:26:55;;;;;;;12.45;8.52;;;;;;;;;;4429981;32;418745;-82
2023/08/17 03:29:21;;;;;;;13.27;8.07;;;;;;;;;;4444549;32;318585;-83
2023/08/17 03:31:49;;;;;;;12.85;8.27;;;;;;;;;;4436940;32;318048;-83
2023/08/17 03:34:16;;;;;;;15.57;9.15;;;;;;;;;;4447459;32;318272;-83
2023/08/17 03:36:43;;;;;;;10.63;7.95;;;;;;;;;;4436496;32;318385;-82
2023/08/17 03:39:11;;;;;;;11.18;8.77;;;;;;;;;;4446769;32;347734;-83
2023/08/17 03:41:38;;;;;;;10.73;9.18;;;;;;;;;;4436497;32;318471;-81
2023/08/17 03:44:06;;;;;;;11.70;9.95;;;;;;;;;;4446544;32;318468;-81
2023/08/17 03:46:33;;;;;;;10.00;8.68;;;;;;;;;;4437536;32;318638;-82
2023/08/17 03:49:00;;;;;;;10.93;9.18;;;;;;;;;;4445800;32;318286;-82
2023/08/17 03:51:27;;;;;;;18.33;9.25;;;;;;;;;;4446338;32;318363;-82
2023/08/17 03:53:53;;;;;;;14.77;9.77;;;;;;;;;;4437236;32;318233;-82
2023/08/17 03:56:22;;;;;;;9.63;8.63;;;;;;;;;;4447001;32;318240;-82
2023/08/17 03:58:48;;;;;;;11.23;8.02;;;;;;;;;;4452155;32;322295;-82
2023/08/17 04:01:15;;;;;;;10.57;8.68;;;;;;;;;;4463020;32;318134;-82
2023/08/17 04:03:42;;;;;;;13.52;8.65;;;;;;;;;;4452239;32;318275;-83
2023/08/17 04:06:10;;;;;;;16.52;8.55;;;;;;;;;;4462462;32;318151;-82
2023/08/17 04:08:37;;;;;;;11.13;8.10;;;;;;;;;;4450935;32;318281;-82
2023/08/17 04:11:04;;;;;;;12.82;8.30;;;;;;;;;;4461909;32;318415;-82
2023/08/17 04:13:33;;;;;;;17.12;9.02;;;;;;;;;;4449601;32;321050;-82
2023/08/17 04:15:59;;;;;;;9.15;8.23;;;;;;;;;;4463225;32;318478;-82
2023/08/17 04:18:26;;;;;;;11.85;8.55;;;;;;;;;;4463537;32;317471;-82
2023/08/17 04:20:53;;;;;;;16.12;8.70;;;;;;;;;;4452480;32;318119;-82
2023/08/17 04:23:19;;;;;;;11.60;8.30;;;;;;;;;;4463479;32;318086;-83
2023/08/17 04:25:47;;;;;;;15.88;8.48;;;;;;;;;;4452964;32;318652;-82
2023/08/17 04:28:14;;;;;;;15.13;9.63;;;;;;;;;;4463048;32;318299;-82
2023/08/17 04:30:43;;;;;;;23.02;10.88;;;;;;;;;;4451610;32;318057;-83
2023/08/17 04:33:09;;;;;;;15.50;11.48;;;;;;;;;;4447268;32;319509;-82
2023/08/17 04:35:36;;;;;;;20.50;12.05;;;;;;;;;;4436524;32;319459;-81
2023/08/17 04:38:04;;;;;;;22.15;11.93;;;;;;;;;;4446031;32;319283;-81
2023/08/17 04:40:30;;;;;;;13.82;10.90;;;;;;;;;;4436798;32;318799;-84
2023/08/17 04:42:57;;;;;;;16.25;11.48;;;;;;;;;;4446382;32;319339;-83
2023/08/17 04:45:24;;;;;;;16.10;11.93;;;;;;;;;;4445906;32;319332;-83
2023/08/17 04:47:53;;;;;;;23.00;11.55;;;;;;;;;;4435950;32;319495;-84
2023/08/17 04:50:19;;;;;;;21.00;12.23;;;;;;;;;;4447468;32;319395;-82
2023/08/17 04:52:46;;;;;;;19.85;11.57;;;;;;;;;;4438582;32;319154;-83
2023/08/17 04:55:14;;;;;;;14.18;10.90;;;;;;;;;;4447574;32;319334;-83
2023/08/17 04:57:40;;;;;;;15.45;10.63;;;;;;;;;;4437874;32;319355;-83
2023/08/17 05:00:09;;;;;;;18.55;11.48;;;;;;;;;;4447165;32;319617;-82
2023/08/17 05:02:36;;;;;;;15.00;10.68;;;;;;;;;;4436029;32;319286;-83
2023/08/17 05:05:06;;;;;;;22.23;12.23;;;;;;;;;;4444435;32;331133;-83
2023/08/17 05:07:34;;;;;;;17.62;12.20;;;;;;;;;;4436408;32;319597;-83
2023/08/17 05:10:01;;;;;;;16.50;11.15;;;;;;;;;;4445972;32;319137;-83
2023/08/17 05:12:28;;;;;;;17.50;10.23;;;;;;;;;;4446338;32;319163;-82
2023/08/17 05:14:54;;;;;;;15.45;10.45;;;;;;;;;;4435897;32;319335;-82
2023/08/17 05:17:21;;;;;;;14.70;10.23;;;;;;;;;;4446063;32;319114;-82
2023/08/17 05:19:48;;;;;;;17.50;9.20;;;;;;;;;;4434428;32;319366;-82
2023/08/17 05:22:16;;;;;;;14.27;8.80;;;;;;;;;;4445877;32;317744;-82
2023/08/17 05:24:43;;;;;;;15.85;9.40;;;;;;;;;;4420392;32;318328;-81
2023/08/17 05:27:10;;;;;;;15.93;9.35;;;;;;;;;;4446312;32;317819;-82
2023/08/17 05:29:36;;;;;;;19.37;8.80;;;;;;;;;;4451611;32;318344;-82
2023/08/17 05:32:04;;;;;;;18.73;9.90;;;;;;;;;;4452360;32;318413;-82
2023/08/17 05:34:31;;;;;;;20.77;10.60;;;;;;;;;;4433546;32;318457;-83
2023/08/17 05:36:57;;;;;;;15.70;10.23;;;;;;;;;;4445518;32;319387;-82
2023/08/17 05:39:25;;;;;;;17.65;10.77;;;;;;;;;;4445771;32;319301;-82
2023/08/17 05:41:52;;;;;;;13.15;10.60;;;;;;;;;;4435583;32;319229;-82
2023/08/17 05:44:19;;;;;;;18.25;9.95;;;;;;;;;;4444518;32;319322;-82
2023/08/17 05:46:46;;;;;;;11.57;9.73;;;;;;;;;;4434526;32;318433;-83
2023/08/17 05:49:12;;;;;;;15.10;9.52;;;;;;;;;;4445244;32;318208;-82
2023/08/17 05:51:39;;;;;;;11.32;10.13;;;;;;;;;;4434317;32;318279;-81
2023/08/17 05:54:07;;;;;;;13.93;9.18;;;;;;;;;;4443227;32;319333;-82
2023/08/17 05:56:35;;;;;;;11.98;8.80;;;;;;;;;;4435232;32;318372;-82
2023/08/17 05:59:01;;;;;;;16.98;9.30;;;;;;;;;;4445207;32;318539;-82
2023/08/17 06:01:28;;;;;;;15.80;9.57;;;;;;;;;;4445262;32;318283;-82
2023/08/17 06:03:55;;;;;;;15.77;9.20;;;;;;;;;;4431283;32;419213;-82
2023/08/17 06:06:21;;;;;;;13.57;9.77;;;;;;;;;;4445468;32;318888;-82
2023/08/17 06:08:48;;;;;;;18.73;10.07;;;;;;;;;;4435224;32;318622;-82
2023/08/17 06:11:15;;;;;;;15.35;8.50;;;;;;;;;;4443850;32;319220;-82
2023/08/17 06:13:43;;;;;;;14.70;8.13;;;;;;;;;;4435502;32;318332;-82
2023/08/17 06:16:10;;;;;;;10.13;7.53;;;;;;;;;;4444135;32;359332;-82
2023/08/17 06:18:37;;;;;;;10.05;6.82;;;;;;;;;;4435014;32;318378;-82
2023/08/17 06:21:04;;;;;;;12.73;7.53;;;;;;;;;;4444010;32;349295;-81
2023/08/17 06:23:30;;;;;;;9.38;7.37;;;;;;;;;;4434865;32;318668;-82
2023/08/17 06:25:58;;;;;;;12.88;6.10;;;;;;;;;;4444776;32;317349;-82
2023/08/17 06:28:25;;;;;;;14.30;6.20;;;;;;;;;;4443728;32;318576;-82
2023/08/17 06:30:54;;;;;;;9.73;6.87;;;;;;;;;;4432671;32;355500;-81
2023/08/17 06:33:21;;;;;;;16.67;7.43;;;;;;;;;;4443667;32;316441;-82
2023/08/17 06:35:48;;;;;;;12.23;7.37;;;;;;;;;;4433538;32;322006;-81
2023/08/17 06:38:15;;;;;;;14.02;7.05;;;;;;;;;;4443774;32;318353;-81
2023/08/17 06:40:42;;;;;;;13.50;7.47;;;;;;;;;;4433552;32;318600;-81
2023/08/17 06:43:09;;;;;;;15.63;5.68;;;;;;;;;;4442604;32;350722;-81
2023/08/17 06:45:36;;;;;;;7.18;5.12;;;;;;;;;;4434828;32;318505;-82
2023/08/17 06:48:04;;;;;;;9.60;4.05;;;;;;;;;;4443151;32;339727;-82
2023/08/17 06:50:31;;;;;;;5.45;4.43;;;;;;;;;;4434663;32;317118;-82
2023/08/17 06:52:58;;;;;;;7.60;4.10;;;;;;;;;;4443596;32;317622;-82
2023/08/17 06:55:25;;;;;;;9.70;4.43;;;;;;;;;;4444410;32;316377;-82
2023/08/17 06:57:51;;;;;;;8.20;5.03;;;;;;;;;;4434705;32;317213;-83
2023/08/17 07:00:20;;;;;;;10.27;5.85;;;;;;;;;;4443956;32;317073;-82
2023/08/17 07:02:47;;;;;;;13.23;5.32;;;;;;;;;;4435168;32;318215;-81
2023/08/17 07:05:15;;;;;;;8.90;5.07;;;;;;;;;;4443910;32;318178;-81
2023/08/17 07:07:42;;;;;;;14.45;5.15;;;;;;;;;;4434422;32;318192;-82
2023/08/17 07:10:10;;;;;;;7.78;4.30;;;;;;;;;;4444421;32;318227;-82
2023/08/17 07:12:38;;;;;;;13.45;5.07;;;;;;;;;;4434542;32;317527;-82
2023/08/17 07:15:07;;;;;;;5.45;4.03;;;;;;;;;;4444357;32;317677;-82
2023/08/17 07:17:34;;;;;;;8.13;4.62;;;;;;;;;;4434581;32;317325;-82
2023/08/17 07:20:01;;;;;;;7.05;4.87;;;;;;;;;;4444113;32;317140;-82
2023/08/17 07:22:29;;;;;;;6.10;4.57;;;;;;;;;;4444496;32;316714;-82
2023/08/17 07:24:56;;;;;;;10.65;4.90;;;;;;;;;;4430126;32;418102;-82
2023/08/17 07:27:23;;;;;;;10.88;4.32;;;;;;;;;;4443370;32;318196;-82
2023/08/17 07:29:49;;;;;;;7.80;3.58;;;;;;;;;;4434929;32;318393;-82
2023/08/17 07:32:16;;;;;;;4.12;3.05;;;;;;;;;;4444642;32;316519;-82
2023/08/17 07:34:43;;;;;;;13.55;3.97;;;;;;;;;;4433431;32;317201;-82
2023/08/17 07:37:10;;;;;;;4.00;3.55;;;;;;;;;;4444342;32;318377;-82
2023/08/17 07:39:38;;;;;;;7.20;4.62;;;;;;;;;;4433691;32;317341;-82
2023/08/17 07:42:05;;;;;;;8.75;4.35;;;;;;;;;;4444603;32;317209;-83
2023/08/17 07:44:33;;;;;;;9.88;4.50;;;;;;;;;;4433541;32;317300;-81
2023/08/17 07:47:00;;;;;;;7.85;3.95;;;;;;;;;;4444415;32;317203;-81
2023/08/17 07:49:26;;;;;;;8.30;4.20;;;;;;;;;;4444046;32;317187;-81
2023/08/17 07:51:53;;;;;;;7.37;3.47;;;;;;;;;;4433291;32;317899;-83
2023/08/17 07:54:20;;;;;;;7.18;3.70;;;;;;;;;;4443262;32;355981;-81
2023/08/17 07:56:48;;;;;;;12.10;3.55;;;;;;;;;;4434610;32;317492;-82
2023/08/17 07:59:15;;;;;;;8.55;3.83;;;;;;;;;;4443163;32;318613;-82
2023/08/17 08:01:42;;;;;;;5.47;2.97;;;;;;;;;;4434267;32;317269;-82
2023/08/17 08:04:08;;;;;;;6.00;3.10;;;;;;;;;;4444029;32;317382;-82
2023/08/17 08:06:35;;;;;;;8.13;3.45;;;;;;;;;;4432944;32;317282;-82
2023/08/17 08:09:02;;;;;;;5.43;2.97;;;;;;;;;;4444149;32;317690;-82
2023/08/17 08:11:30;;;;;;;5.60;3.28;;;;;;;;;;4444166;32;317119;-82
2023/08/17 08:13:58;;;;;;;5.20;3.28;;;;;;;;;;4429958;32;416653;-82
2023/08/17 08:16:25;;;;;;;8.48;3.15;;;;;;;;;;4440103;32;317118;-82
2023/08/17 08:18:52;;;;;;;5.80;3.60;;;;;;;;;;4450008;32;317310;-82
2023/08/17 08:21:18;;;;;;;6.30;3.37;;;;;;;;;;4462644;32;317648;-82
2023/08/17 08:23:45;;;;;;;9.95;3.50;;;;;;;;;;4451288;32;317437;-82
2023/08/17 08:26:12;;;;;;;6.47;2.97;;;;;;;;;;4446134;32;345722;-81
2023/08/17 08:28:38;;;;;;;8.93;3.85;;;;;;;;;;4452293;32;317642;-82
2023/08/17 08:31:07;;;;;;;3.70;2.90;;;;;;;;;;4459111;32;317336;-82
2023/08/17 08:33:33;;;;;;;6.62;3.00;;;;;;;;;;4436700;32;317128;-82
2023/08/17 08:36:00;;;;;;;4.68;3.12;;;;;;;;;;4445879;32;317040;-81
2023/08/17 08:38:27;;;;;;;9.40;3.08;;;;;;;;;;4446093;32;339122;-82
2023/08/17 08:40:54;;;;;;;4.97;3.33;;;;;;;;;;4436997;32;317330;-82
2023/08/17 08:43:20;;;;;;;6.07;3.60;;;;;;;;;;4432895;32;317343;-81
2023/08/17 08:45:49;;;;;;;10.77;3.33;;;;;;;;;;4435790;32;317696;-82
2023/08/17 08:48:19;;;;;;;3.53;2.75;;;;;;;;;;4446314;32;318609;-82
2023/08/17 08:50:47;;;;;;;5.55;3.35;;;;;;;;;;4435688;32;317209;-81
2023/08/17 08:53:16;;;;;;;8.60;3.03;;;;;;;;;;4445577;32;317507;-82
2023/08/17 08:55:56;;;;;;;4.28;3.37;;;;;;;;;;4446585;32;317279;-82
2023/08/17 08:58:24;;;;;;;4.45;3.58;;;;;;;;;;4461049;32;358040;-82
2023/08/17 09:00:50;;;;;;;10.35;3.60;;;;;;;;;;4451831;32;317175;-82
2023/08/17 09:03:20;;;;;;;7.45;3.60;;;;;;;;;;4461022;32;317632;-82
2023/08/17 09:05:48;;;;;;;7.00;3.80;;;;;;;;;;4452438;32;317452;-82
2023/08/17 09:08:16;;;;;;;5.03;3.42;;;;;;;;;;4460640;32;317410;-82
2023/08/17 09:10:43;;;;;;;6.22;3.30;;;;;;;;;;4450808;32;317388;-82
2023/08/17 09:13:11;;;;;;;5.62;3.70;;;;;;;;;;4451387;32;344536;-82
2023/08/17 09:15:37;;;;;;;5.32;3.15;;;;;;;;;;4425300;32;317276;-82
2023/08/17 09:18:07;;;;;;;4.62;3.05;;;;;;;;;;4444104;32;317161;-82
2023/08/17 09:20:40;;;;;;;5.32;3.08;;;;;;;;;;4436455;32;317032;-82
2023/08/17 09:23:12;;;;;;;11.07;3.30;;;;;;;;;;4445094;32;317322;-82
2023/08/17 09:25:40;;;;;;;8.52;3.10;;;;;;;;;;4435883;32;328953;-82
2023/08/17 09:28:12;;;;;;;7.93;3.62;;;;;;;;;;4446363;32;317216;-81
2023/08/17 09:30:53;;;;;;;5.90;3.50;;;;;;;;;;4435753;32;329637;-81
2023/08/17 09:33:20;;;;;;;6.45;3.45;;;;;;;;;;4445648;32;317061;-82
2023/08/17 09:35:49;;;;;;;4.82;3.30;;;;;;;;;;4436203;32;317157;-82
2023/08/17 09:38:16;;;;;;;5.72;3.97;;;;;;;;;;4445362;32;343398;-82
2023/08/17 09:40:43;;;;;;;11.70;3.65;;;;;;;;;;4435971;32;316974;-82
2023/08/17 09:43:10;;;;;;;11.27;3.47;;;;;;;;;;4446153;32;318188;-82
2023/08/17 09:45:38;;;;;;;6.10;3.15;;;;;;;;;;4436091;32;318612;-82
2023/08/17 09:48:05;;;;;;;7.45;3.42;;;;;;;;;;4445804;32;316315;-81
2023/08/17 09:50:32;;;;;;;5.87;3.45;;;;;;;;;;4457426;32;317128;-82
2023/08/17 09:53:00;;;;;;;5.43;3.12;;;;;;;;;;4447749;32;417835;-82
2023/08/17 09:55:27;;;;;;;6.07;2.87;;;;;;;;;;4451037;32;334880;-82
2023/08/17 09:57:55;;;;;;;4.87;3.85;;;;;;;;;;4435884;32;317124;-82
2023/08/17 10:00:22;;;;;;;5.62;3.35;;;;;;;;;;4445679;32;317254;-82
2023/08/17 10:02:51;;;;;;;11.25;4.30;;;;;;;;;;4434280;32;316866;-82
2023/08/17 10:05:20;;;;;;;7.32;3.42;;;;;;;;;;4445865;32;318078;-82
2023/08/17 10:07:49;;;;;;;11.95;3.80;;;;;;;;;;4434464;32;317157;-82
2023/08/17 10:10:22;;;;;;;5.30;3.70;;;;;;;;;;4444953;32;318064;-82
2023/08/17 10:12:54;;;;;;;9.60;3.67;;;;;;;;;;4434647;32;317529;-83
2023/08/17 10:15:24;;;;;;;6.22;3.62;;;;;;;;;;4444246;32;317552;-83
2023/08/17 10:17:59;;;;;;;5.57;3.37;;;;;;;;;;4435482;32;317511;-83
2023/08/17 10:20:30;;;;;;;8.15;3.10;;;;;;;;;;4444516;32;317504;-83
2023/08/17 10:23:03;;;;;;;8.57;3.45;;;;;;;;;;4436777;32;317374;-82
2023/08/17 10:25:31;;;;;;;6.30;4.07;;;;;;;;;;4460683;32;317074;-83
2023/08/17 10:28:00;;;;;;;5.22;3.35;;;;;;;;;;4450880;32;317392;-82
2023/08/17 10:30:27;;;;;;;9.68;3.65;;;;;;;;;;4459723;32;316918;-82
2023/08/17 10:32:54;;;;;;;4.65;3.00;;;;;;;;;;4450635;32;317011;-82
2023/08/17 10:35:21;;;;;;;8.25;3.47;;;;;;;;;;4461023;32;317016;-82
2023/08/17 10:37:49;;;;;;;5.37;3.03;;;;;;;;;;4449477;32;324206;-83
2023/08/17 10:40:15;;;;;;;7.47;3.35;;;;;;;;;;4459134;32;317192;-83
2023/08/17 10:42:43;;;;;;;7.25;4.12;;;;;;;;;;4450872;32;317221;-82
2023/08/17 10:45:28;;;;;;;4.75;3.30;;;;;;;;;;4459780;32;352762;-82
2023/08/17 10:48:01;;;;;;;5.87;3.67;;;;;;;;;;4448160;32;357477;-82
2023/08/17 10:50:28;;;;;;;4.62;3.53;;;;;;;;;;4460627;32;316579;-82
2023/08/17 10:52:55;;;;;;;7.85;3.35;;;;;;;;;;4450758;32;317168;-82
2023/08/17 10:55:38;;;;;;;7.00;3.78;;;;;;;;;;4452183;32;317121;-82
2023/08/17 10:58:08;;;;;;;13.00;3.55;;;;;;;;;;4432041;32;415875;-82
2023/08/17 11:00:36;;;;;;;6.12;3.42;;;;;;;;;;4431845;32;350971;-82
2023/08/17 11:03:05;;;;;;;5.68;3.03;;;;;;;;;;4444789;32;317016;-82
2023/08/17 11:05:37;;;;;;;5.90;2.72;;;;;;;;;;4445181;32;317154;-82
2023/08/17 11:08:04;;;;;;;7.22;3.40;;;;;;;;;;4431055;32;416261;-82
2023/08/17 11:10:31;;;;;;;4.97;3.03;;;;;;;;;;4444631;32;317005;-83
2023/08/17 11:13:00;;;;;;;6.03;4.07;;;;;;;;;;4434867;32;317322;-82
2023/08/17 11:15:37;;;;;;;6.97;3.60;;;;;;;;;;4444646;32;317356;-83
2023/08/17 11:18:05;;;;;;;4.65;3.05;;;;;;;;;;4431629;32;418143;-83
2023/08/17 11:20:31;;;;;;;9.50;3.28;;;;;;;;;;4443445;32;316927;-83
2023/08/17 11:22:58;;;;;;;6.72;3.30;;;;;;;;;;4434648;32;316998;-83
2023/08/17 11:25:26;;;;;;;9.15;2.80;;;;;;;;;;4444383;32;316470;-82
2023/08/17 11:27:53;;;;;;;5.12;3.42;;;;;;;;;;4433489;32;317002;-82
2023/08/17 11:30:21;;;;;;;7.37;3.70;;;;;;;;;;4443203;32;317227;-82
2023/08/17 11:32:49;;;;;;;6.70;3.62;;;;;;;;;;4433217;32;317265;-83
2023/08/17 11:35:15;;;;;;;8.40;3.53;;;;;;;;;;4443681;32;317312;-83
2023/08/17 11:37:43;;;;;;;5.37;3.28;;;;;;;;;;4434684;32;317336;-83
2023/08/17 11:40:11;;;;;;;5.10;3.28;;;;;;;;;;4444375;32;317288;-83
2023/08/17 11:42:38;;;;;;;4.75;3.35;;;;;;;;;;4431072;32;317237;-83
2023/08/17 11:45:07;;;;;;;5.97;2.85;;;;;;;;;;4444605;32;317356;-83
2023/08/17 11:47:35;;;;;;;4.62;3.12;;;;;;;;;;4434559;32;317306;-82
2023/08/17 11:50:04;;;;;;;5.75;3.37;;;;;;;;;;4444523;32;317169;-83
2023/08/17 11:52:32;;;;;;;9.57;3.92;;;;;;;;;;4446052;32;317581;-83
2023/08/17 11:54:59;;;;;;;8.48;3.42;;;;;;;;;;4434802;32;416464;-83
2023/08/17 11:57:26;;;;;;;5.50;3.50;;;;;;;;;;4447233;32;316950;-82
2023/08/17 11:59:54;;;;;;;3.60;2.90;;;;;;;;;;4427927;32;317068;-81
2023/08/17 12:02:22;;;;;;;8.70;3.62;;;;;;;;;;4446843;32;316772;-82
2023/08/17 12:04:49;;;;;;;7.37;4.28;;;;;;;;;;4436314;32;316929;-82
2023/08/17 12:07:18;;;;;;;8.25;3.47;;;;;;;;;;4446089;32;316557;-82
2023/08/17 12:09:45;;;;;;;7.15;3.70;;;;;;;;;;4436170;32;317131;-81
2023/08/17 12:12:12;;;;;;;7.30;3.97;;;;;;;;;;4445976;32;317253;-81
2023/08/17 12:14:42;;;;;;;10.63;4.05;;;;;;;;;;4435758;32;317025;-82
2023/08/17 12:17:08;;;;;;;4.97;3.60;;;;;;;;;;4445701;32;318312;-82
2023/08/17 12:19:35;;;;;;;8.95;3.35;;;;;;;;;;4437279;32;321090;-82
2023/08/17 12:22:03;;;;;;;5.75;3.75;;;;;;;;;;4447060;32;317751;-82
2023/08/17 12:24:31;;;;;;;6.82;3.35;;;;;;;;;;4445188;32;316465;-82
2023/08/17 12:26:58;;;;;;;5.97;3.03;;;;;;;;;;4436529;32;317373;-82
2023/08/17 12:29:25;;;;;;;9.98;3.10;;;;;;;;;;4446925;32;317130;-82
2023/08/17 12:31:53;;;;;;;5.25;3.08;;;;;;;;;;4436163;32;316759;-82
2023/08/17 12:34:19;;;;;;;5.68;2.70;;;;;;;;;;4445997;32;317070;-82
2023/08/17 12:36:46;;;;;;;6.72;3.08;;;;;;;;;;4437110;32;317090;-82
2023/08/17 12:39:13;;;;;;;4.15;3.15;;;;;;;;;;4447000;32;317591;-82
2023/08/17 12:41:41;;;;;;;6.95;3.00;;;;;;;;;;4435723;32;317149;-82
2023/08/17 12:44:11;;;;;;;4.78;3.05;;;;;;;;;;4445572;32;317313;-82
2023/08/17 12:46:38;;;;;;;6.40;2.78;;;;;;;;;;4436250;32;317119;-82
2023/08/17 12:49:06;;;;;;;5.97;3.12;;;;;;;;;;4446598;32;316965;-81
2023/08/17 12:51:33;;;;;;;5.18;2.95;;;;;;;;;;4446345;32;317009;-82
2023/08/17 12:54:00;;;;;;;7.10;3.00;;;;;;;;;;4433595;32;417080;-82
2023/08/17 12:56:27;;;;;;;7.87;3.62;;;;;;;;;;4460023;32;317169;-82
2023/08/17 12:58:55;;;;;;;8.02;3.28;;;;;;;;;;4452017;32;321455;-82
2023/08/17 13:01:21;;;;;;;6.47;3.25;;;;;;;;;;4460931;32;322476;-82
2023/08/17 13:03:48;;;;;;;4.15;2.90;;;;;;;;;;4451792;32;317088;-82
2023/08/17 13:06:15;;;;;;;5.43;3.58;;;;;;;;;;4461033;32;316996;-82
2023/08/17 13:08:41;;;;;;;2.90;2.33;;;;;;;;;;4451083;32;317398;-82
2023/08/17 13:11:08;;;;;;;7.30;3.15;;;;;;;;;;4462013;32;317041;-82
2023/08/17 13:13:35;;;;;;;9.50;3.00;;;;;;;;;;4436828;32;317199;-83
2023/08/17 13:16:04;;;;;;;8.20;2.58;;;;;;;;;;4445765;32;317062;-82
2023/08/17 13:18:31;;;;;;;11.90;3.12;;;;;;;;;;4444878;32;317075;-82
2023/08/17 13:20:57;;;;;;;4.85;2.80;;;;;;;;;;4435082;32;318536;-82
2023/08/17 13:23:24;;;;;;;3.58;3.08;;;;;;;;;;4445777;32;317080;-82
2023/08/17 13:25:51;;;;;;;3.95;2.50;;;;;;;;;;4435800;32;317572;-82
2023/08/17 13:28:18;;;;;;;6.47;2.62;;;;;;;;;;4444892;32;317623;-82
2023/08/17 13:30:44;;;;;;;5.43;2.15;;;;;;;;;;4436020;32;317075;-82
2023/08/17 13:33:12;;;;;;;6.62;2.50;;;;;;;;;;4445879;32;317276;-82
2023/08/17 13:35:39;;;;;;;4.35;2.55;;;;;;;;;;4436264;32;317134;-81
2023/08/17 13:38:06;;;;;;;5.35;2.47;;;;;;;;;;4444536;32;317019;-80
2023/08/17 13:40:33;;;;;;;3.20;2.20;;;;;;;;;;4444480;32;316791;-81
2023/08/17 13:43:00;;;;;;;7.20;2.50;;;;;;;;;;4426796;32;417977;-81
2023/08/17 13:45:27;;;;;;;6.32;3.10;;;;;;;;;;4444742;32;316959;-82
2023/08/17 13:47:54;;;;;;;6.40;2.75;;;;;;;;;;4434498;32;317291;-82
2023/08/17 13:50:22;;;;;;;8.77;3.45;;;;;;;;;;4445880;32;317079;-82
2023/08/17 13:52:48;;;;;;;4.80;2.35;;;;;;;;;;4434922;32;344208;-81
2023/08/17 13:55:15;;;;;;;5.07;2.53;;;;;;;;;;4445580;32;317287;-81
2023/08/17 13:57:42;;;;;;;6.45;3.03;;;;;;;;;;4435436;32;317323;-82
2023/08/17 14:00:10;;;;;;;4.03;2.42;;;;;;;;;;4444479;32;317691;-82
2023/08/17 14:02:37;;;;;;;7.57;2.12;;;;;;;;;;4434163;32;317672;-82
2023/08/17 14:05:04;;;;;;;4.40;2.70;;;;;;;;;;4444459;32;317108;-82
2023/08/17 14:07:32;;;;;;;4.43;2.47;;;;;;;;;;4444038;32;317536;-82
2023/08/17 14:09:59;;;;;;;7.50;2.22;;;;;;;;;;4430972;32;417920;-83
2023/08/17 14:12:25;;;;;;;3.78;2.03;;;;;;;;;;4445296;32;317056;-82
2023/08/17 14:14:52;;;;;;;9.32;2.12;;;;;;;;;;4435135;32;317458;-81
2023/08/17 14:17:19;;;;;;;3.40;2.33;;;;;;;;;;4444589;32;316862;-81
2023/08/17 14:19:46;;;;;;;6.90;2.75;;;;;;;;;;4434599;32;317560;-81
2023/08/17 14:22:12;;;;;;;5.00;2.67;;;;;;;;;;4444734;32;335646;-81
2023/08/17 14:24:40;;;;;;;3.60;2.12;;;;;;;;;;4434909;32;317468;-81